createdAt,value
2023-08-16T00:00:40.637Z,95775.73
2023-08-16T00:03:29.097Z,95779.28
2023-08-16T00:05:57.804Z,95779.41
2023-08-16T00:08:26.156Z,95780.92
2023-08-16T00:10:54.355Z,95777.07
2023-08-16T00:13:22.444Z,95785.35
2023-08-16T00:15:50.686Z,95787.14
2023-08-16T00:18:18.792Z,95779.89
2023-08-16T00:20:47.005Z,95784.66
2023-08-16T00:23:15.245Z,95778.27
2023-08-16T00:25:43.614Z,95782.36
2023-08-16T00:28:11.895Z,95779.15
2023-08-16T00:30:40.206Z,95779.77
2023-08-16T00:33:08.651Z,95784.34
2023-08-16T00:35:37.161Z,95780.62
2023-08-16T00:38:05.361Z,95786.01
2023-08-16T00:40:33.664Z,95785.41
2023-08-16T00:43:01.690Z,95791.19
2023-08-16T00:45:30.720Z,95792.27
2023-08-16T00:47:59.684Z,95793.31
2023-08-16T00:50:28.073Z,95790.33
2023-08-16T00:52:56.512Z,95798.88
2023-08-16T00:55:24.883Z,95803.48
2023-08-16T00:57:53.543Z,95809.84
2023-08-16T01:00:22.084Z,95808.55
2023-08-16T01:02:50.576Z,95798.82
2023-08-16T01:05:19.526Z,95796.08
2023-08-16T01:07:47.770Z,95786.88
2023-08-16T01:10:16.518Z,95792.06
2023-08-16T01:12:54.050Z,95779.96
2023-08-16T01:15:33.685Z,95785.00
2023-08-16T01:18:03.301Z,95785.53
2023-08-16T01:20:32.614Z,95780.23
2023-08-16T01:23:13.418Z,95782.86
2023-08-16T01:25:54.915Z,95783.94
2023-08-16T01:28:24.097Z,95788.89
2023-08-16T01:30:53.544Z,95784.70
2023-08-16T01:33:21.793Z,95785.19
2023-08-16T01:35:49.949Z,95781.85
2023-08-16T01:38:18.417Z,95783.86
2023-08-16T01:40:56.260Z,95782.02
2023-08-16T01:43:25.671Z,95787.59
2023-08-16T01:45:56.148Z,95788.95
2023-08-16T01:48:26.725Z,95784.92
2023-08-16T01:50:55.337Z,95787.21
2023-08-16T01:53:23.554Z,95787.67
2023-08-16T01:55:51.816Z,95781.44
2023-08-16T01:58:20.105Z,95792.64
2023-08-16T02:00:49.048Z,95800.48
2023-08-16T02:03:17.692Z,95799.61
2023-08-16T02:05:45.927Z,95801.06
2023-08-16T02:08:14.265Z,95790.61
2023-08-16T02:10:42.510Z,95784.40
2023-08-16T02:13:10.777Z,95781.73
2023-08-16T02:15:39.211Z,95784.52
2023-08-16T02:18:12.522Z,95784.02
2023-08-16T02:20:42.512Z,95772.42
2023-08-16T02:23:10.947Z,95778.79
2023-08-16T02:25:41.220Z,95772.77
2023-08-16T02:28:09.524Z,95772.30
2023-08-16T02:30:38.325Z,95767.31
2023-08-16T02:33:06.954Z,95767.96
2023-08-16T02:35:35.391Z,95771.28
2023-08-16T02:38:03.914Z,95770.08
2023-08-16T02:40:33.144Z,95765.01
2023-08-16T02:43:01.267Z,95764.14
2023-08-16T02:45:29.471Z,95758.52
2023-08-16T02:47:58.795Z,95755.85
2023-08-16T02:50:27.144Z,95758.05
2023-08-16T02:52:55.354Z,95756.64
2023-08-16T02:55:23.519Z,95757.77
2023-08-16T02:57:53.578Z,95757.92
2023-08-16T03:00:21.853Z,95756.14
2023-08-16T03:02:50.205Z,95756.10
2023-08-16T03:05:18.508Z,95757.98
2023-08-16T03:07:46.674Z,95754.88
2023-08-16T03:10:14.975Z,95756.70
2023-08-16T03:12:43.435Z,95757.48
2023-08-16T03:15:11.703Z,95759.07
2023-08-16T03:17:39.935Z,95764.41
2023-08-16T03:20:10.866Z,95768.83
2023-08-16T03:22:39.464Z,95767.52
2023-08-16T03:25:07.789Z,95758.73
2023-08-16T03:27:36.263Z,95759.61
2023-08-16T03:30:06.681Z,95756.49
2023-08-16T03:32:35.701Z,95762.34
2023-08-16T03:35:05.183Z,95758.80
2023-08-16T03:37:33.758Z,95757.89
2023-08-16T03:40:02.047Z,95763.77
2023-08-16T03:42:30.096Z,95765.08
2023-08-16T03:44:58.882Z,95767.96
2023-08-16T03:47:28.411Z,95766.56
2023-08-16T03:49:57.957Z,95771.09
2023-08-16T03:52:29.593Z,95767.19
2023-08-16T03:54:58.083Z,95775.13
2023-08-16T03:57:26.514Z,95780.23
2023-08-16T03:59:55.204Z,95779.67
2023-08-16T04:02:24.234Z,95782.55
2023-08-16T04:04:54.774Z,95790.91
2023-08-16T04:07:23.950Z,95793.52
2023-08-16T04:09:52.932Z,95796.63
2023-08-16T04:12:21.168Z,95787.12
2023-08-16T04:14:49.285Z,95777.78
2023-08-16T04:17:18.274Z,95778.65
2023-08-16T04:19:46.549Z,95781.95
2023-08-16T04:22:14.946Z,95783.82
2023-08-16T04:24:43.864Z,95780.12
2023-08-16T04:27:12.040Z,95771.83
2023-08-16T04:29:41.583Z,95776.96
2023-08-16T04:32:09.887Z,95773.67
2023-08-16T04:34:38.101Z,95780.25
2023-08-16T04:37:07.104Z,95777.59
2023-08-16T04:39:35.518Z,95783.91
2023-08-16T04:42:05.010Z,95785.14
2023-08-16T04:44:33.562Z,95783.46
2023-08-16T04:47:01.858Z,95786.58
2023-08-16T04:49:30.733Z,95787.30
2023-08-16T04:51:59.647Z,95788.70
2023-08-16T04:54:27.931Z,95789.20
2023-08-16T04:56:56.729Z,95795.42
2023-08-16T04:59:25.317Z,95800.32
2023-08-16T05:01:53.964Z,95803.80
2023-08-16T05:04:23.742Z,95814.20
2023-08-16T05:06:52.284Z,95810.59
2023-08-16T05:09:20.495Z,95811.22
2023-08-16T05:11:48.965Z,95814.06
2023-08-16T05:14:17.084Z,95818.13
2023-08-16T05:16:45.415Z,95820.06
2023-08-16T05:19:14.524Z,95825.25
2023-08-16T05:21:44.447Z,95835.14
2023-08-16T05:24:15.303Z,95827.85
2023-08-16T05:26:43.919Z,95824.29
2023-08-16T05:29:12.095Z,95820.73
2023-08-16T05:31:42.976Z,95823.73
2023-08-16T05:34:11.558Z,95818.63
2023-08-16T05:36:51.227Z,95810.27
2023-08-16T05:39:19.576Z,95811.56
2023-08-16T05:41:48.037Z,95808.45
2023-08-16T05:44:16.202Z,95813.59
2023-08-16T05:46:44.557Z,95816.86
2023-08-16T05:49:13.466Z,95822.59
2023-08-16T05:51:41.928Z,95828.36
2023-08-16T05:54:10.188Z,95821.56
2023-08-16T05:56:39.184Z,95818.65
2023-08-16T05:59:07.296Z,95812.46
2023-08-16T06:01:35.505Z,95815.86
2023-08-16T06:04:04.174Z,95819.99
2023-08-16T06:06:32.491Z,95827.63
2023-08-16T06:09:00.876Z,95821.43
2023-08-16T06:11:29.049Z,95828.36
2023-08-16T06:13:57.661Z,95833.21
2023-08-16T06:16:25.902Z,95841.45
2023-08-16T06:18:54.511Z,95843.37
2023-08-16T06:21:23.065Z,95844.19
2023-08-16T06:23:52.287Z,95842.84
2023-08-16T06:26:20.773Z,95830.09
2023-08-16T06:28:49.970Z,95826.56
2023-08-16T06:31:18.534Z,95811.53
2023-08-16T06:33:46.821Z,95805.28
2023-08-16T06:36:15.281Z,95808.34
2023-08-16T06:38:44.943Z,95818.45
2023-08-16T06:41:14.229Z,95828.22
2023-08-16T06:43:42.566Z,95830.05
2023-08-16T06:46:10.785Z,95827.88
2023-08-16T06:48:39.039Z,95824.19
2023-08-16T06:51:07.406Z,95834.83
2023-08-16T06:53:35.749Z,95840.42
2023-08-16T06:56:07.141Z,95850.02
2023-08-16T06:58:35.553Z,95848.80
2023-08-16T07:01:04.109Z,95840.16
2023-08-16T07:03:32.460Z,95827.30
2023-08-16T07:06:01.027Z,95839.42
2023-08-16T07:08:31.524Z,95839.84
2023-08-16T07:10:59.748Z,95832.33
2023-08-16T07:13:28.145Z,95834.61
2023-08-16T07:15:56.778Z,95830.33
2023-08-16T07:18:25.858Z,95819.04
2023-08-16T07:20:56.098Z,95825.77
2023-08-16T07:23:24.457Z,95827.70
2023-08-16T07:25:57.723Z,95833.36
2023-08-16T07:28:26.365Z,95816.56
2023-08-16T07:30:56.127Z,95809.40
2023-08-16T07:33:24.507Z,95815.41
2023-08-16T07:35:53.043Z,95815.98
2023-08-16T07:38:21.263Z,95826.67
2023-08-16T07:40:50.596Z,95825.69
2023-08-16T07:43:18.841Z,95839.63
2023-08-16T07:45:52.998Z,95836.70
2023-08-16T07:48:22.116Z,95843.34
2023-08-16T07:50:51.465Z,95844.33
2023-08-16T07:53:20.025Z,95848.78
2023-08-16T07:55:48.206Z,95850.34
2023-08-16T07:58:17.163Z,95865.70
2023-08-16T08:00:49.375Z,95871.06
2023-08-16T08:03:22.242Z,95860.92
2023-08-16T08:05:50.593Z,95863.20
2023-08-16T08:08:19.015Z,95861.98
2023-08-16T08:10:47.290Z,95870.25
2023-08-16T08:13:15.476Z,95865.46
2023-08-16T08:15:43.890Z,95860.88
2023-08-16T08:18:12.254Z,95862.35
2023-08-16T08:20:40.734Z,95867.23
2023-08-16T08:23:09.059Z,95867.11
2023-08-16T08:25:37.178Z,95871.55
2023-08-16T08:28:05.837Z,95876.80
2023-08-16T08:30:35.080Z,95876.23
2023-08-16T08:33:03.576Z,95868.52
2023-08-16T08:35:34.703Z,95863.06
2023-08-16T08:38:03.641Z,95856.38
2023-08-16T08:40:32.881Z,95860.64
2023-08-16T08:43:02.520Z,95859.21
2023-08-16T08:45:31.865Z,95857.74
2023-08-16T08:48:01.392Z,95861.75
2023-08-16T08:50:30.251Z,95869.77
2023-08-16T08:52:58.720Z,95860.27
2023-08-16T08:55:33.646Z,95860.10
2023-08-16T08:58:03.732Z,95850.55
2023-08-16T09:00:38.961Z,95852.80
2023-08-16T09:03:09.529Z,95865.34
2023-08-16T09:05:43.456Z,95868.06
2023-08-16T09:08:14.702Z,95862.58
2023-08-16T09:10:44.277Z,95865.98
2023-08-16T09:13:13.231Z,95864.33
2023-08-16T09:15:41.713Z,95865.67
2023-08-16T09:18:15.472Z,95848.91
2023-08-16T09:20:45.306Z,95848.62
2023-08-16T09:23:15.083Z,95842.95
2023-08-16T09:25:43.445Z,95845.60
2023-08-16T09:28:12.643Z,95842.17
2023-08-16T09:30:44.108Z,95843.38
2023-08-16T09:33:16.321Z,95849.30
2023-08-16T09:35:50.425Z,95860.55
2023-08-16T09:38:38.041Z,95849.59
2023-08-16T09:41:15.388Z,95841.65
2023-08-16T09:43:43.878Z,95847.64
2023-08-16T09:46:13.087Z,95843.14
2023-08-16T09:49:10.631Z,95844.97
2023-08-16T09:54:03.389Z,95840.78
2023-08-16T09:59:37.038Z,95828.36
2023-08-16T10:09:34.990Z,95837.93
2023-08-16T10:12:04.870Z,95846.89
2023-08-16T10:14:34.902Z,95846.55
2023-08-16T10:17:04.638Z,95834.61
2023-08-16T10:19:41.970Z,95830.10
2023-08-16T10:24:55.702Z,95834.33
2023-08-16T10:27:25.855Z,95837.33
2023-08-16T10:32:37.422Z,95837.25
2023-08-16T10:35:07.860Z,95821.70
2023-08-16T10:40:26.075Z,95769.73
2023-08-16T10:42:59.337Z,95758.56
2023-08-16T10:48:36.368Z,95772.85
2023-08-16T10:51:06.366Z,95784.11
2023-08-16T10:53:37.021Z,95789.16
2023-08-16T10:56:06.873Z,95789.91
2023-08-16T10:58:50.836Z,95799.40
2023-08-16T11:01:21.584Z,95808.42
2023-08-16T11:03:51.161Z,95827.63
2023-08-16T11:06:20.582Z,95849.73
2023-08-16T11:08:49.254Z,95849.99
2023-08-16T11:11:17.707Z,95860.70
2023-08-16T11:13:47.456Z,95867.13
2023-08-16T11:16:15.692Z,95855.64
2023-08-16T11:18:45.485Z,95852.88
2023-08-16T11:21:18.103Z,95861.30
2023-08-16T11:23:47.474Z,95866.91
2023-08-16T11:26:16.742Z,95861.52
2023-08-16T11:28:45.305Z,95870.69
2023-08-16T11:31:13.896Z,95869.39
2023-08-16T11:33:44.178Z,95867.72
2023-08-16T11:36:15.055Z,95864.55
2023-08-16T11:38:45.268Z,95891.71
2023-08-16T11:41:19.573Z,95889.65
2023-08-16T11:43:57.514Z,95873.36
2023-08-16T11:46:25.834Z,95876.11
2023-08-16T11:48:55.795Z,95871.80
2023-08-16T11:51:29.223Z,95867.15
2023-08-16T11:54:00.118Z,95870.63
2023-08-16T11:56:29.890Z,95867.13
2023-08-16T11:59:01.045Z,95863.84
2023-08-16T12:01:29.446Z,95851.27
2023-08-16T12:04:00.715Z,95838.92
2023-08-16T12:06:29.341Z,95827.41
2023-08-16T12:08:57.825Z,95820.06
2023-08-16T12:11:36.921Z,95828.69
2023-08-16T12:14:07.663Z,95832.21
2023-08-16T12:16:36.193Z,95829.60
2023-08-16T12:19:04.732Z,95828.54
2023-08-16T12:21:33.007Z,95839.59
2023-08-16T12:24:01.306Z,95841.48
2023-08-16T12:26:29.561Z,95834.27
2023-08-16T12:28:57.892Z,95831.49
2023-08-16T12:31:26.168Z,95845.89
2023-08-16T12:33:54.479Z,95853.93
2023-08-16T12:36:22.691Z,95852.33
2023-08-16T12:38:51.272Z,95854.28
2023-08-16T12:41:19.372Z,95849.04
2023-08-16T12:43:47.660Z,95852.05
2023-08-16T12:46:15.932Z,95859.55
2023-08-16T12:48:44.327Z,95864.26
2023-08-16T12:53:45.472Z,95866.80
2023-08-16T12:56:14.771Z,95877.49
2023-08-16T13:04:00.358Z,95869.34
2023-08-16T13:06:31.858Z,95870.88
2023-08-16T13:09:04.159Z,95866.17
2023-08-16T13:11:36.646Z,95865.00
2023-08-16T13:14:30.229Z,95861.19
2023-08-16T13:19:47.639Z,95868.22
2023-08-16T13:22:18.194Z,95867.54
2023-08-16T13:27:38.496Z,95867.19
2023-08-16T13:30:20.884Z,95864.59
2023-08-16T13:33:05.541Z,95853.04
2023-08-16T13:35:49.984Z,95870.26
2023-08-16T13:38:19.131Z,95878.52
2023-08-16T13:46:07.235Z,95856.60
2023-08-16T13:48:35.729Z,95854.02
2023-08-16T13:51:03.946Z,95851.45
2023-08-16T13:53:32.055Z,95864.58
2023-08-16T13:56:02.328Z,95874.58
2023-08-16T13:58:32.906Z,95880.51
2023-08-16T14:01:02.337Z,95888.07
2023-08-16T14:03:30.736Z,95906.77
2023-08-16T14:06:02.201Z,95911.70
2023-08-16T14:08:31.109Z,95908.58
2023-08-16T14:11:03.931Z,95893.39
2023-08-16T14:13:32.711Z,95881.50
2023-08-16T14:16:02.779Z,95871.65
2023-08-16T14:18:32.275Z,95870.16
2023-08-16T14:21:04.390Z,95881.04
2023-08-16T14:23:33.356Z,95918.34
2023-08-16T14:26:01.582Z,95921.75
2023-08-16T14:28:29.975Z,95910.90
2023-08-16T14:30:58.302Z,95894.47
2023-08-16T14:33:26.677Z,95878.82
2023-08-16T14:35:54.960Z,95870.37
2023-08-16T14:38:23.192Z,95843.40
2023-08-16T14:40:51.529Z,95832.94
2023-08-16T14:43:19.716Z,95838.03
2023-08-16T14:45:47.997Z,95850.54
2023-08-16T14:48:16.626Z,95860.38
2023-08-16T14:50:44.792Z,95875.71
2023-08-16T14:53:13.096Z,95896.64
2023-08-16T14:55:41.385Z,95906.54
2023-08-16T14:58:09.750Z,95910.42
2023-08-16T15:00:39.588Z,95901.42
2023-08-16T15:03:08.145Z,95882.70
2023-08-16T15:05:36.342Z,95877.55
2023-08-16T15:08:04.817Z,95883.98
2023-08-16T15:10:33.299Z,95874.35
2023-08-16T15:13:01.620Z,95866.58
2023-08-16T15:15:29.986Z,95869.29
2023-08-16T15:17:58.223Z,95872.04
2023-08-16T15:20:26.557Z,95864.90
2023-08-16T15:22:54.712Z,95851.53
2023-08-16T15:25:22.861Z,95848.31
2023-08-16T15:27:51.734Z,95835.31
2023-08-16T15:30:19.914Z,95843.48
2023-08-16T15:32:48.386Z,95847.98
2023-08-16T15:35:16.729Z,95848.77
2023-08-16T15:37:44.943Z,95850.66
2023-08-16T15:40:13.180Z,95866.67
2023-08-16T15:42:42.084Z,95878.34
2023-08-16T15:45:10.741Z,95878.33
2023-08-16T15:47:39.015Z,95872.05
2023-08-16T15:50:08.125Z,95865.58
2023-08-16T15:52:36.459Z,95855.77
2023-08-16T15:55:06.613Z,95843.19
2023-08-16T15:57:35.083Z,95832.34
2023-08-16T16:00:05.430Z,95839.66
2023-08-16T16:02:42.120Z,95849.58
2023-08-16T16:05:10.326Z,95849.39
2023-08-16T16:07:38.515Z,95841.38
2023-08-16T16:10:07.184Z,95829.52
2023-08-16T16:12:35.777Z,95834.00
2023-08-16T16:15:04.476Z,95839.81
2023-08-16T16:17:32.700Z,95867.91
2023-08-16T16:20:00.997Z,95881.44
2023-08-16T16:22:29.114Z,95890.52
2023-08-16T16:24:57.869Z,95885.61
2023-08-16T16:27:26.221Z,95879.69
2023-08-16T16:29:55.625Z,95868.63
2023-08-16T16:32:24.707Z,95867.54
2023-08-16T16:34:53.329Z,95868.02
2023-08-16T16:37:22.012Z,95867.30
2023-08-16T16:39:50.155Z,95859.23
2023-08-16T16:42:18.420Z,95854.23
2023-08-16T16:44:46.528Z,95855.93
2023-08-16T16:47:15.805Z,95856.38
2023-08-16T16:49:44.330Z,95847.89
2023-08-16T16:52:12.644Z,95845.30
2023-08-16T16:54:40.921Z,95844.85
2023-08-16T16:57:09.289Z,95861.06
2023-08-16T16:59:38.270Z,95864.70
2023-08-16T17:02:07.818Z,95856.86
2023-08-16T17:04:36.073Z,95851.38
2023-08-16T17:07:06.044Z,95859.48
2023-08-16T17:09:37.103Z,95860.35
2023-08-16T17:12:06.050Z,95862.42
2023-08-16T17:14:34.499Z,95856.38
2023-08-16T17:17:02.714Z,95841.67
2023-08-16T17:19:31.280Z,95833.57
2023-08-16T17:21:59.568Z,95833.73
2023-08-16T17:24:27.982Z,95839.61
2023-08-16T17:26:56.253Z,95832.86
2023-08-16T17:29:24.515Z,95829.94
2023-08-16T17:31:53.675Z,95837.31
2023-08-16T17:34:22.879Z,95837.25
2023-08-16T17:36:51.348Z,95838.11
2023-08-16T17:39:20.534Z,95847.41
2023-08-16T17:41:48.846Z,95846.65
2023-08-16T17:44:17.344Z,95839.27
2023-08-16T17:46:45.576Z,95824.73
2023-08-16T17:49:13.904Z,95814.27
2023-08-16T17:51:42.511Z,95810.98
2023-08-16T17:54:10.785Z,95820.69
2023-08-16T17:56:38.985Z,95831.14
2023-08-16T17:59:07.157Z,95841.15
2023-08-16T18:01:36.576Z,95860.66
2023-08-16T18:04:05.653Z,95862.08
2023-08-16T18:06:34.313Z,95853.06
2023-08-16T18:09:02.500Z,95862.86
2023-08-16T18:11:30.766Z,95872.09
2023-08-16T18:13:58.907Z,95867.02
2023-08-16T18:16:27.384Z,95854.85
2023-08-16T18:18:55.479Z,95850.20
2023-08-16T18:21:24.871Z,95845.17
2023-08-16T18:23:53.204Z,95844.13
2023-08-16T18:26:21.837Z,95848.83
2023-08-16T18:28:50.138Z,95866.13
2023-08-16T18:31:18.649Z,95876.02
2023-08-16T18:33:47.310Z,95881.33
2023-08-16T18:36:16.415Z,95890.05
2023-08-16T18:38:44.741Z,95896.87
2023-08-16T18:41:12.790Z,95893.13
2023-08-16T18:43:41.313Z,95876.27
2023-08-16T18:46:09.703Z,95870.51
2023-08-16T18:48:38.902Z,95874.00
2023-08-16T18:51:07.160Z,95879.66
2023-08-16T18:53:35.995Z,95885.34
2023-08-16T18:56:06.444Z,95889.36
2023-08-16T18:58:34.933Z,95879.72
2023-08-16T19:01:03.719Z,95870.69
2023-08-16T19:03:32.224Z,95865.77
2023-08-16T19:06:00.429Z,95868.84
2023-08-16T19:08:28.681Z,95867.52
2023-08-16T19:10:56.892Z,95866.73
2023-08-16T19:13:25.184Z,95868.52
2023-08-16T19:15:53.390Z,95863.14
2023-08-16T19:18:21.508Z,95866.39
2023-08-16T19:20:49.939Z,95864.85
2023-08-16T19:23:18.114Z,95857.61
2023-08-16T19:25:46.435Z,95856.34
2023-08-16T19:28:14.705Z,95852.52
2023-08-16T19:30:43.165Z,95860.15
2023-08-16T19:33:12.790Z,95874.61
2023-08-16T19:35:41.124Z,95868.77
2023-08-16T19:38:09.688Z,95866.93
2023-08-16T19:40:38.170Z,95862.02
2023-08-16T19:43:06.480Z,95856.13
2023-08-16T19:45:35.758Z,95852.66
2023-08-16T19:48:04.400Z,95856.08
2023-08-16T19:50:32.718Z,95862.20
2023-08-16T19:53:01.405Z,95858.89
2023-08-16T19:55:29.874Z,95851.00
2023-08-16T19:57:58.182Z,95842.21
2023-08-16T20:00:28.147Z,95845.29
2023-08-16T20:02:57.563Z,95850.34
2023-08-16T20:05:25.930Z,95850.26
2023-08-16T20:07:54.457Z,95849.08
2023-08-16T20:10:22.605Z,95857.37
2023-08-16T20:12:50.700Z,95857.15
2023-08-16T20:15:19.127Z,95854.52
2023-08-16T20:17:47.397Z,95851.23
2023-08-16T20:20:15.747Z,95853.08
2023-08-16T20:22:46.753Z,95859.18
2023-08-16T20:25:15.206Z,95860.95
2023-08-16T20:27:43.262Z,95860.17
2023-08-16T20:30:12.376Z,95853.79
2023-08-16T20:32:40.664Z,95863.39
2023-08-16T20:35:09.163Z,95865.27
2023-08-16T20:37:37.628Z,95859.69
2023-08-16T20:40:07.797Z,95852.01
2023-08-16T20:42:39.384Z,95854.70
2023-08-16T20:45:09.786Z,95855.89
2023-08-16T20:47:39.377Z,95856.74
2023-08-16T20:50:10.815Z,95856.14
2023-08-16T20:52:43.099Z,95850.10
2023-08-16T20:55:12.805Z,95851.98
2023-08-16T20:57:40.985Z,95848.09
2023-08-16T21:00:09.557Z,95842.68
2023-08-16T21:02:37.811Z,95842.84
2023-08-16T21:05:06.335Z,95843.70
2023-08-16T21:07:34.550Z,95847.84
2023-08-16T21:10:02.948Z,95844.48
2023-08-16T21:12:31.506Z,95839.41
2023-08-16T21:14:59.865Z,95833.42
2023-08-16T21:17:28.147Z,95828.15
2023-08-16T21:19:56.641Z,95820.63
2023-08-16T21:22:24.888Z,95822.99
2023-08-16T21:24:53.536Z,95821.66
2023-08-16T21:27:21.855Z,95825.74
2023-08-16T21:29:50.084Z,95829.77
2023-08-16T21:32:18.591Z,95830.31
2023-08-16T21:34:46.738Z,95824.76
2023-08-16T21:37:14.952Z,95817.26
2023-08-16T21:39:43.202Z,95811.29
2023-08-16T21:42:11.611Z,95807.23
2023-08-16T21:44:40.211Z,95815.02
2023-08-16T21:47:09.219Z,95807.92
2023-08-16T21:49:37.554Z,95803.73
2023-08-16T21:52:05.872Z,95800.54
2023-08-16T21:54:35.289Z,95795.77
2023-08-16T21:57:03.963Z,95797.59
2023-08-16T21:59:32.369Z,95803.39
2023-08-16T22:02:00.524Z,95802.30
2023-08-16T22:04:28.838Z,95802.05
2023-08-16T22:06:57.212Z,95806.51
2023-08-16T22:09:25.522Z,95806.07
2023-08-16T22:11:53.917Z,95805.54
2023-08-16T22:14:22.547Z,95801.17
2023-08-16T22:16:50.760Z,95795.67
2023-08-16T22:19:19.060Z,95789.80
2023-08-16T22:21:49.186Z,95777.17
2023-08-16T22:24:17.705Z,95764.67
2023-08-16T22:26:46.078Z,95754.27
2023-08-16T22:29:14.320Z,95745.25
2023-08-16T22:31:42.693Z,95746.20
2023-08-16T22:34:11.613Z,95758.30
2023-08-16T22:36:39.699Z,95771.55
2023-08-16T22:39:08.203Z,95778.65
2023-08-16T22:41:36.612Z,95777.27
2023-08-16T22:44:04.810Z,95781.20
2023-08-16T22:46:33.135Z,95781.35
2023-08-16T22:49:01.345Z,95781.31
2023-08-16T22:51:29.572Z,95775.45
2023-08-16T22:53:57.844Z,95768.45
2023-08-16T22:56:26.088Z,95771.25
2023-08-16T22:58:54.402Z,95772.02
2023-08-16T23:01:23.070Z,95768.93
2023-08-16T23:03:53.285Z,95777.05
2023-08-16T23:06:21.778Z,95779.25
2023-08-16T23:08:50.624Z,95778.84
2023-08-16T23:11:18.794Z,95776.92
2023-08-16T23:13:47.151Z,95779.22
2023-08-16T23:16:15.267Z,95770.48
2023-08-16T23:18:43.476Z,95768.44
2023-08-16T23:21:12.188Z,95772.02
2023-08-16T23:23:41.318Z,95775.50
2023-08-16T23:26:09.794Z,95776.15
2023-08-16T23:28:38.190Z,95782.22
2023-08-16T23:31:06.674Z,95781.48
2023-08-16T23:33:34.992Z,95783.98
2023-08-16T23:36:03.395Z,95791.34
2023-08-16T23:38:31.540Z,95802.48
2023-08-16T23:40:59.693Z,95801.29
2023-08-16T23:43:27.874Z,95803.45
2023-08-16T23:45:56.014Z,95806.11
2023-08-16T23:48:24.896Z,95811.83
2023-08-16T23:50:53.244Z,95810.95
2023-08-16T23:53:21.467Z,95814.79
2023-08-16T23:55:49.753Z,95813.42
2023-08-16T23:58:17.878Z,95809.23
